Ana Sayfa
METAR-TAF:

METAR-TAF

Havaalanları :

Charlotte, Michigan, Amerika Birleşik Devletleri

Enlem: 42-34-28N, Boylam: 084-48-41W, yükseklik: 271 m

Güncel hava durumu gözlemi

Rapor saat 20:15 UTC de 26 dakika önce yapıldı.
Rüzgar kuzeydan 7 kt, kuzeybatı ve kuzey/kuzeydoğu arasında değişken
Sıcaklık 31°C
Nem 59%
Basınç 1013 hPa
Görüş mesafesi: 16.1 km
3800 ft yükseklikte parçalı bulutlu

METAR: KFPK 172015Z AUTO 36007KT 320V030 10SM SCT038 31/22 A2991 RMK AO2 T03050217

Saat: 16:41 (20:41 UTC)


TAF: eksik

4.000'den fazla havaalanı için hava durumu gözlemleri ve tahminleri (METAR ve TAF raporları).

Kullanılabilir istasyonlar harita üzerinde sarı ve kırmızı noktalarla gösterilir.

İstasyonun adını görmek için fareyi noktanın üzerinde gezdirin.

Sonrasında hava gözlem ve tahminlerini görmek için tıklayın.

Haritayı değiştirmek için: yaklaştırmak için siyah artı işaretli yeşil düğmeye ve uzaklaştırmak için de eksi işaretli düğmeye hızla tıklayın; bitişik haritalar için yeşil okları kullanın.


METAR-TAF: